sensor_id;sensor_type;location;lat;lon;timestamp;temperature;humidity
56542;DHT22;42438;53.174;6.730;2023-02-26T00:02:06;0.80;99.90
56542;DHT22;42438;53.174;6.730;2023-02-26T00:04:40;0.80;99.90
56542;DHT22;42438;53.174;6.730;2023-02-26T00:07:10;0.80;99.90
56542;DHT22;42438;53.174;6.730;2023-02-26T00:09:41;1.80;99.90
56542;DHT22;42438;53.174;6.730;2023-02-26T00:12:12;0.60;99.90
56542;DHT22;42438;53.174;6.730;2023-02-26T00:14:43;1.10;99.90
56542;DHT22;42438;53.174;6.730;2023-02-26T00:20:06;1.20;99.90
56542;DHT22;42438;53.174;6.730;2023-02-26T00:22:39;1.20;99.90
56542;DHT22;42438;53.174;6.730;2023-02-26T00:25:10;1.20;99.90
56542;DHT22;42438;53.174;6.730;2023-02-26T00:27:41;2.20;99.90
56542;DHT22;42438;53.174;6.730;2023-02-26T00:30:13;1.10;99.90
56542;DHT22;42438;53.174;6.730;2023-02-26T00:32:44;1.10;99.90
56542;DHT22;42438;53.174;6.730;2023-02-26T00:35:15;1.10;99.90
56542;DHT22;42438;53.174;6.730;2023-02-26T00:40:48;1.10;99.90
56542;DHT22;42438;53.174;6.730;2023-02-26T00:43:22;1.10;99.90
56542;DHT22;42438;53.174;6.730;2023-02-26T00:52:27;0.90;99.90
56542;DHT22;42438;53.174;6.730;2023-02-26T00:55:01;1.40;99.90
56542;DHT22;42438;53.174;6.730;2023-02-26T00:57:32;1.10;99.90
56542;DHT22;42438;53.174;6.730;2023-02-26T01:00:04;1.10;99.90
56542;DHT22;42438;53.174;6.730;2023-02-26T01:02:38;0.90;99.90
56542;DHT22;42438;53.174;6.730;2023-02-26T01:12:43;0.70;99.90
56542;DHT22;42438;53.174;6.730;2023-02-26T01:15:14;0.70;99.90
56542;DHT22;42438;53.174;6.730;2023-02-26T01:20:24;1.20;99.90
56542;DHT22;42438;53.174;6.730;2023-02-26T01:23:08;1.00;99.90
56542;DHT22;42438;53.174;6.730;2023-02-26T01:25:49;0.40;99.90
56542;DHT22;42438;53.174;6.730;2023-02-26T01:28:20;0.30;99.90
56542;DHT22;42438;53.174;6.730;2023-02-26T01:31:00;0.30;99.90
56542;DHT22;42438;53.174;6.730;2023-02-26T01:33:43;0.20;99.90
56542;DHT22;42438;53.174;6.730;2023-02-26T01:36:20;0.40;99.90
56542;DHT22;42438;53.174;6.730;2023-02-26T01:44:46;0.10;99.90
56542;DHT22;42438;53.174;6.730;2023-02-26T01:47:42;1.10;99.90
56542;DHT22;42438;53.174;6.730;2023-02-26T01:50:20;0.00;99.90
56542;DHT22;42438;53.174;6.730;2023-02-26T01:53:18;0.00;99.90
56542;DHT22;42438;53.174;6.730;2023-02-26T01:56:00;0.00;99.90
56542;DHT22;42438;53.174;6.730;2023-02-26T01:58:34;0.00;99.90
56542;DHT22;42438;53.174;6.730;2023-02-26T02:01:06;0.00;99.90
56542;DHT22;42438;53.174;6.730;2023-02-26T02:03:38;0.30;99.90
56542;DHT22;42438;53.174;6.730;2023-02-26T02:06:18;0.00;99.90
56542;DHT22;42438;53.174;6.730;2023-02-26T02:08:50;0.00;99.90
56542;DHT22;42438;53.174;6.730;2023-02-26T02:11:21;0.00;99.90
56542;DHT22;42438;53.174;6.730;2023-02-26T02:14:23;0.00;99.90
56542;DHT22;42438;53.174;6.730;2023-02-26T02:17:05;0.00;99.90
56542;DHT22;42438;53.174;6.730;2023-02-26T02:19:58;0.00;99.90
56542;DHT22;42438;53.174;6.730;2023-02-26T02:22:48;0.00;99.90
56542;DHT22;42438;53.174;6.730;2023-02-26T02:28:23;0.60;99.90
56542;DHT22;42438;53.174;6.730;2023-02-26T02:37:53;0.00;99.90
56542;DHT22;42438;53.174;6.730;2023-02-26T02:40:30;0.00;99.90
56542;DHT22;42438;53.174;6.730;2023-02-26T02:43:05;0.00;99.90
56542;DHT22;42438;53.174;6.730;2023-02-26T02:48:24;0.00;99.90
56542;DHT22;42438;53.174;6.730;2023-02-26T02:51:09;-0.10;99.90
56542;DHT22;42438;53.174;6.730;2023-02-26T02:53:42;-0.10;99.90
56542;DHT22;42438;53.174;6.730;2023-02-26T02:56:31;0.40;99.90
56542;DHT22;42438;53.174;6.730;2023-02-26T03:01:44;-0.10;99.90
56542;DHT22;42438;53.174;6.730;2023-02-26T03:04:17;0.20;99.90
56542;DHT22;42438;53.174;6.730;2023-02-26T03:06:47;-0.10;99.90
56542;DHT22;42438;53.174;6.730;2023-02-26T03:09:19;-0.20;99.90
56542;DHT22;42438;53.174;6.730;2023-02-26T03:14:21;-0.40;99.90
56542;DHT22;42438;53.174;6.730;2023-02-26T03:25:39;-0.60;99.90
56542;DHT22;42438;53.174;6.730;2023-02-26T03:31:34;-0.60;99.90
56542;DHT22;42438;53.174;6.730;2023-02-26T03:36:53;-0.80;99.90
56542;DHT22;42438;53.174;6.730;2023-02-26T03:39:30;-0.80;99.90
56542;DHT22;42438;53.174;6.730;2023-02-26T03:44:46;-0.90;99.90
56542;DHT22;42438;53.174;6.730;2023-02-26T03:47:18;-0.90;99.90
56542;DHT22;42438;53.174;6.730;2023-02-26T03:52:32;-0.70;99.90
56542;DHT22;42438;53.174;6.730;2023-02-26T03:55:17;-0.70;99.90
56542;DHT22;42438;53.174;6.730;2023-02-26T03:57:48;-0.90;99.90
56542;DHT22;42438;53.174;6.730;2023-02-26T04:00:19;-1.20;99.90
56542;DHT22;42438;53.174;6.730;2023-02-26T04:21:01;-1.30;99.90
56542;DHT22;42438;53.174;6.730;2023-02-26T04:23:32;-1.50;99.90
56542;DHT22;42438;53.174;6.730;2023-02-26T04:26:03;-1.50;99.90
56542;DHT22;42438;53.174;6.730;2023-02-26T04:28:33;-1.60;99.90
56542;DHT22;42438;53.174;6.730;2023-02-26T04:31:07;-1.60;99.90
56542;DHT22;42438;53.174;6.730;2023-02-26T04:33:39;-1.80;99.90
56542;DHT22;42438;53.174;6.730;2023-02-26T04:36:10;-1.70;99.90
56542;DHT22;42438;53.174;6.730;2023-02-26T04:38:41;-1.60;99.90
56542;DHT22;42438;53.174;6.730;2023-02-26T04:41:11;-0.90;99.90
56542;DHT22;42438;53.174;6.730;2023-02-26T04:43:42;-1.80;99.90
56542;DHT22;42438;53.174;6.730;2023-02-26T04:46:13;-1.30;99.90
56542;DHT22;42438;53.174;6.730;2023-02-26T04:48:44;-1.60;99.90
56542;DHT22;42438;53.174;6.730;2023-02-26T04:51:14;-1.60;99.90
56542;DHT22;42438;53.174;6.730;2023-02-26T04:53:45;-1.60;99.90
56542;DHT22;42438;53.174;6.730;2023-02-26T04:56:16;-1.70;99.90
56542;DHT22;42438;53.174;6.730;2023-02-26T04:58:46;-1.70;99.90
56542;DHT22;42438;53.174;6.730;2023-02-26T05:01:17;-1.70;99.90
56542;DHT22;42438;53.174;6.730;2023-02-26T05:03:48;-1.70;99.90
56542;DHT22;42438;53.174;6.730;2023-02-26T05:06:18;-1.70;99.90
56542;DHT22;42438;53.174;6.730;2023-02-26T05:08:49;-1.80;99.90
56542;DHT22;42438;53.174;6.730;2023-02-26T05:11:20;-1.80;99.90
56542;DHT22;42438;53.174;6.730;2023-02-26T05:13:50;-2.10;99.90
56542;DHT22;42438;53.174;6.730;2023-02-26T05:16:21;-1.70;99.90
56542;DHT22;42438;53.174;6.730;2023-02-26T05:18:52;-1.60;99.90
56542;DHT22;42438;53.174;6.730;2023-02-26T05:21:22;-0.60;99.90
56542;DHT22;42438;53.174;6.730;2023-02-26T05:23:53;-1.50;99.90
56542;DHT22;42438;53.174;6.730;2023-02-26T05:26:24;-1.50;99.90
56542;DHT22;42438;53.174;6.730;2023-02-26T05:28:54;-1.40;99.90
56542;DHT22;42438;53.174;6.730;2023-02-26T05:31:25;-1.50;99.90
56542;DHT22;42438;53.174;6.730;2023-02-26T05:33:56;-1.40;99.90
56542;DHT22;42438;53.174;6.730;2023-02-26T05:36:27;-0.40;99.90
56542;DHT22;42438;53.174;6.730;2023-02-26T05:38:57;-1.50;99.90
56542;DHT22;42438;53.174;6.730;2023-02-26T05:41:28;-1.30;99.90
56542;DHT22;42438;53.174;6.730;2023-02-26T05:43:59;-1.50;99.90
56542;DHT22;42438;53.174;6.730;2023-02-26T05:46:29;-1.80;99.90
56542;DHT22;42438;53.174;6.730;2023-02-26T05:49:00;-1.50;99.90
56542;DHT22;42438;53.174;6.730;2023-02-26T05:51:31;-1.50;99.90
56542;DHT22;42438;53.174;6.730;2023-02-26T05:54:01;-1.50;99.90
56542;DHT22;42438;53.174;6.730;2023-02-26T05:56:32;-1.50;99.90
56542;DHT22;42438;53.174;6.730;2023-02-26T05:59:03;-1.50;99.90
56542;DHT22;42438;53.174;6.730;2023-02-26T06:01:34;-1.50;99.90
56542;DHT22;42438;53.174;6.730;2023-02-26T06:04:06;-1.50;99.90
56542;DHT22;42438;53.174;6.730;2023-02-26T06:06:37;-1.50;99.90
56542;DHT22;42438;53.174;6.730;2023-02-26T06:09:07;-1.80;99.90
56542;DHT22;42438;53.174;6.730;2023-02-26T06:11:38;-1.50;99.90
56542;DHT22;42438;53.174;6.730;2023-02-26T06:14:09;-1.50;99.90
56542;DHT22;42438;53.174;6.730;2023-02-26T06:16:40;-1.50;99.90
56542;DHT22;42438;53.174;6.730;2023-02-26T06:19:11;-1.40;99.90
56542;DHT22;42438;53.174;6.730;2023-02-26T06:21:41;-1.40;99.90
56542;DHT22;42438;53.174;6.730;2023-02-26T06:24:12;-1.50;99.90
56542;DHT22;42438;53.174;6.730;2023-02-26T06:26:43;-1.40;99.90
56542;DHT22;42438;53.174;6.730;2023-02-26T06:29:14;-1.30;99.90
56542;DHT22;42438;53.174;6.730;2023-02-26T06:31:45;-1.30;99.90
56542;DHT22;42438;53.174;6.730;2023-02-26T06:34:16;-1.60;99.90
56542;DHT22;42438;53.174;6.730;2023-02-26T06:36:47;-1.20;99.90
56542;DHT22;42438;53.174;6.730;2023-02-26T06:39:17;-1.20;99.90
56542;DHT22;42438;53.174;6.730;2023-02-26T06:41:48;-1.10;99.90
56542;DHT22;42438;53.174;6.730;2023-02-26T06:44:19;-1.40;99.90
56542;DHT22;42438;53.174;6.730;2023-02-26T06:46:49;-1.10;99.90
56542;DHT22;42438;53.174;6.730;2023-02-26T06:49:20;-0.30;99.90
56542;DHT22;42438;53.174;6.730;2023-02-26T06:51:51;-1.20;99.90
56542;DHT22;42438;53.174;6.730;2023-02-26T06:54:22;-1.20;99.90
56542;DHT22;42438;53.174;6.730;2023-02-26T06:56:52;-1.10;99.90
56542;DHT22;42438;53.174;6.730;2023-02-26T06:59:27;-1.10;99.90
56542;DHT22;42438;53.174;6.730;2023-02-26T07:01:58;-0.30;99.90
56542;DHT22;42438;53.174;6.730;2023-02-26T07:04:29;-0.90;99.90
56542;DHT22;42438;53.174;6.730;2023-02-26T07:06:59;-0.90;99.90
56542;DHT22;42438;53.174;6.730;2023-02-26T07:09:30;-1.00;99.90
56542;DHT22;42438;53.174;6.730;2023-02-26T07:12:01;-0.80;99.90
56542;DHT22;42438;53.174;6.730;2023-02-26T07:14:32;0.10;99.90
56542;DHT22;42438;53.174;6.730;2023-02-26T07:17:03;-0.60;99.90
56542;DHT22;42438;53.174;6.730;2023-02-26T07:19:34;-0.90;99.90
56542;DHT22;42438;53.174;6.730;2023-02-26T07:22:04;-0.60;99.90
56542;DHT22;42438;53.174;6.730;2023-02-26T07:24:35;-0.50;99.90
56542;DHT22;42438;53.174;6.730;2023-02-26T07:27:06;0.20;99.90
56542;DHT22;42438;53.174;6.730;2023-02-26T07:29:37;-0.40;99.90
56542;DHT22;42438;53.174;6.730;2023-02-26T07:32:08;-0.40;99.90
56542;DHT22;42438;53.174;6.730;2023-02-26T07:34:38;-0.30;99.90
56542;DHT22;42438;53.174;6.730;2023-02-26T07:37:09;-0.30;99.90
56542;DHT22;42438;53.174;6.730;2023-02-26T07:39:40;0.00;99.90
56542;DHT22;42438;53.174;6.730;2023-02-26T07:42:11;-0.30;99.90
56542;DHT22;42438;53.174;6.730;2023-02-26T07:44:42;0.10;99.90
56542;DHT22;42438;53.174;6.730;2023-02-26T07:47:13;1.30;99.90
56542;DHT22;42438;53.174;6.730;2023-02-26T07:49:43;0.50;99.90
56542;DHT22;42438;53.174;6.730;2023-02-26T07:52:14;0.50;99.90
56542;DHT22;42438;53.174;6.730;2023-02-26T07:54:46;0.80;99.90
56542;DHT22;42438;53.174;6.730;2023-02-26T07:57:17;0.90;99.90
56542;DHT22;42438;53.174;6.730;2023-02-26T07:59:48;0.90;99.90
56542;DHT22;42438;53.174;6.730;2023-02-26T08:02:19;1.70;99.90
56542;DHT22;42438;53.174;6.730;2023-02-26T08:04:50;1.00;99.90
56542;DHT22;42438;53.174;6.730;2023-02-26T08:07:21;1.10;99.90
56542;DHT22;42438;53.174;6.730;2023-02-26T08:09:52;1.10;99.90
56542;DHT22;42438;53.174;6.730;2023-02-26T08:12:23;1.20;99.90
56542;DHT22;42438;53.174;6.730;2023-02-26T08:14:53;0.90;99.90
56542;DHT22;42438;53.174;6.730;2023-02-26T08:17:24;1.60;99.90
56542;DHT22;42438;53.174;6.730;2023-02-26T08:19:55;1.30;99.90
56542;DHT22;42438;53.174;6.730;2023-02-26T08:22:25;1.30;99.90
56542;DHT22;42438;53.174;6.730;2023-02-26T08:24:56;2.30;99.90
56542;DHT22;42438;53.174;6.730;2023-02-26T08:27:27;1.50;99.90
56542;DHT22;42438;53.174;6.730;2023-02-26T08:29:58;1.50;99.90
56542;DHT22;42438;53.174;6.730;2023-02-26T08:32:29;1.60;99.90
56542;DHT22;42438;53.174;6.730;2023-02-26T08:34:59;1.90;99.90
56542;DHT22;42438;53.174;6.730;2023-02-26T08:37:30;2.00;99.90
56542;DHT22;42438;53.174;6.730;2023-02-26T08:40:01;1.70;99.90
56542;DHT22;42438;53.174;6.730;2023-02-26T08:42:31;1.80;99.90
56542;DHT22;42438;53.174;6.730;2023-02-26T08:45:02;2.00;99.90
56542;DHT22;42438;53.174;6.730;2023-02-26T08:47:33;2.10;99.90
56542;DHT22;42438;53.174;6.730;2023-02-26T08:50:04;2.30;99.90
56542;DHT22;42438;53.174;6.730;2023-02-26T08:52:36;2.40;99.90
56542;DHT22;42438;53.174;6.730;2023-02-26T08:55:08;3.30;99.90
56542;DHT22;42438;53.174;6.730;2023-02-26T08:57:39;2.60;99.90
56542;DHT22;42438;53.174;6.730;2023-02-26T09:00:10;2.70;99.90
56542;DHT22;42438;53.174;6.730;2023-02-26T09:02:41;2.80;99.90
56542;DHT22;42438;53.174;6.730;2023-02-26T09:05:12;2.90;99.90
56542;DHT22;42438;53.174;6.730;2023-02-26T09:07:44;3.00;99.90
56542;DHT22;42438;53.174;6.730;2023-02-26T09:10:15;3.10;99.90
56542;DHT22;42438;53.174;6.730;2023-02-26T09:12:46;3.20;99.90
56542;DHT22;42438;53.174;6.730;2023-02-26T09:15:17;3.20;99.90
56542;DHT22;42438;53.174;6.730;2023-02-26T09:17:47;3.30;99.90
56542;DHT22;42438;53.174;6.730;2023-02-26T09:20:18;3.40;99.90
56542;DHT22;42438;53.174;6.730;2023-02-26T09:22:49;3.50;99.90
56542;DHT22;42438;53.174;6.730;2023-02-26T09:25:19;3.60;99.90
56542;DHT22;42438;53.174;6.730;2023-02-26T09:27:50;3.70;99.90
56542;DHT22;42438;53.174;6.730;2023-02-26T09:30:21;3.80;99.90
56542;DHT22;42438;53.174;6.730;2023-02-26T09:32:51;3.90;99.90
56542;DHT22;42438;53.174;6.730;2023-02-26T09:35:22;3.90;99.90
56542;DHT22;42438;53.174;6.730;2023-02-26T09:37:53;3.90;99.90
56542;DHT22;42438;53.174;6.730;2023-02-26T09:44:03;4.10;99.90
56542;DHT22;42438;53.174;6.730;2023-02-26T09:47:13;4.10;99.90
56542;DHT22;42438;53.174;6.730;2023-02-26T09:52:32;4.20;99.90
56542;DHT22;42438;53.174;6.730;2023-02-26T09:55:18;4.20;99.90
56542;DHT22;42438;53.174;6.730;2023-02-26T09:58:03;4.30;99.90
56542;DHT22;42438;53.174;6.730;2023-02-26T10:00:45;4.40;99.90
56542;DHT22;42438;53.174;6.730;2023-02-26T10:06:11;4.50;99.90
56542;DHT22;42438;53.174;6.730;2023-02-26T10:20:31;4.90;99.90
56542;DHT22;42438;53.174;6.730;2023-02-26T10:23:16;5.00;99.90
56542;DHT22;42438;53.174;6.730;2023-02-26T10:25:52;5.10;99.90
56542;DHT22;42438;53.174;6.730;2023-02-26T10:28:33;5.10;99.90
56542;DHT22;42438;53.174;6.730;2023-02-26T10:31:34;5.10;99.90
56542;DHT22;42438;53.174;6.730;2023-02-26T10:34:39;5.30;99.90
56542;DHT22;42438;53.174;6.730;2023-02-26T10:42:51;5.60;99.90
56542;DHT22;42438;53.174;6.730;2023-02-26T10:51:19;5.90;98.80
56542;DHT22;42438;53.174;6.730;2023-02-26T10:53:58;5.90;99.20
56542;DHT22;42438;53.174;6.730;2023-02-26T10:56:32;5.80;98.60
56542;DHT22;42438;53.174;6.730;2023-02-26T10:59:03;5.80;98.80
56542;DHT22;42438;53.174;6.730;2023-02-26T11:01:34;5.70;98.80
56542;DHT22;42438;53.174;6.730;2023-02-26T11:04:10;5.70;98.60
56542;DHT22;42438;53.174;6.730;2023-02-26T11:06:48;5.80;98.60
56542;DHT22;42438;53.174;6.730;2023-02-26T11:09:38;5.90;99.10
56542;DHT22;42438;53.174;6.730;2023-02-26T11:14:42;6.10;98.80
56542;DHT22;42438;53.174;6.730;2023-02-26T11:17:22;6.20;99.00
56542;DHT22;42438;53.174;6.730;2023-02-26T11:20:03;6.30;98.70
56542;DHT22;42438;53.174;6.730;2023-02-26T11:22:35;6.40;98.40
56542;DHT22;42438;53.174;6.730;2023-02-26T11:25:12;6.60;98.90
56542;DHT22;42438;53.174;6.730;2023-02-26T11:27:43;6.70;98.50
56542;DHT22;42438;53.174;6.730;2023-02-26T11:30:19;6.90;98.80
56542;DHT22;42438;53.174;6.730;2023-02-26T11:32:51;7.10;98.50
56542;DHT22;42438;53.174;6.730;2023-02-26T11:35:23;7.30;96.80
56542;DHT22;42438;53.174;6.730;2023-02-26T11:38:00;7.30;98.20
56542;DHT22;42438;53.174;6.730;2023-02-26T11:40:40;7.10;97.00
56542;DHT22;42438;53.174;6.730;2023-02-26T11:43:14;6.80;97.30
56542;DHT22;42438;53.174;6.730;2023-02-26T11:45:52;6.70;98.00
56542;DHT22;42438;53.174;6.730;2023-02-26T11:48:27;6.60;97.80
56542;DHT22;42438;53.174;6.730;2023-02-26T11:51:00;6.30;97.90
56542;DHT22;42438;53.174;6.730;2023-02-26T11:53:56;6.00;98.10
56542;DHT22;42438;53.174;6.730;2023-02-26T11:56:38;5.80;98.00
56542;DHT22;42438;53.174;6.730;2023-02-26T11:59:21;5.50;98.20
56542;DHT22;42438;53.174;6.730;2023-02-26T12:01:52;5.60;98.60
56542;DHT22;42438;53.174;6.730;2023-02-26T12:04:24;5.60;98.80
56542;DHT22;42438;53.174;6.730;2023-02-26T12:06:55;5.90;98.20
56542;DHT22;42438;53.174;6.730;2023-02-26T12:09:26;6.10;98.40
56542;DHT22;42438;53.174;6.730;2023-02-26T12:15:03;6.50;96.70
56542;DHT22;42438;53.174;6.730;2023-02-26T12:17:59;6.60;97.30
56542;DHT22;42438;53.174;6.730;2023-02-26T12:23:32;6.30;97.40
56542;DHT22;42438;53.174;6.730;2023-02-26T12:26:19;6.50;97.60
56542;DHT22;42438;53.174;6.730;2023-02-26T12:29:13;6.70;96.90
56542;DHT22;42438;53.174;6.730;2023-02-26T12:52:28;6.30;97.10
56542;DHT22;42438;53.174;6.730;2023-02-26T13:12:10;6.30;98.10
56542;DHT22;42438;53.174;6.730;2023-02-26T13:17:38;6.30;98.10
56542;DHT22;42438;53.174;6.730;2023-02-26T13:22:47;6.60;98.60
56542;DHT22;42438;53.174;6.730;2023-02-26T13:31:12;6.60;97.70
56542;DHT22;42438;53.174;6.730;2023-02-26T13:33:47;6.50;98.00
56542;DHT22;42438;53.174;6.730;2023-02-26T13:36:19;6.40;98.10
56542;DHT22;42438;53.174;6.730;2023-02-26T13:50:27;6.30;98.70
56542;DHT22;42438;53.174;6.730;2023-02-26T14:06:53;5.60;98.70
56542;DHT22;42438;53.174;6.730;2023-02-26T14:25:27;5.90;98.20
56542;DHT22;42438;53.174;6.730;2023-02-26T14:31:16;5.80;97.20
56542;DHT22;42438;53.174;6.730;2023-02-26T14:33:59;5.60;97.70
56542;DHT22;42438;53.174;6.730;2023-02-26T14:36:50;5.50;97.40
56542;DHT22;42438;53.174;6.730;2023-02-26T14:39:28;5.30;97.90
56542;DHT22;42438;53.174;6.730;2023-02-26T14:42:03;5.30;98.50
56542;DHT22;42438;53.174;6.730;2023-02-26T14:44:43;5.40;98.70
56542;DHT22;42438;53.174;6.730;2023-02-26T14:47:16;5.50;98.30
56542;DHT22;42438;53.174;6.730;2023-02-26T14:49:48;5.30;98.10
56542;DHT22;42438;53.174;6.730;2023-02-26T15:08:25;5.40;99.20
56542;DHT22;42438;53.174;6.730;2023-02-26T15:11:55;5.20;98.60
56542;DHT22;42438;53.174;6.730;2023-02-26T15:14:41;5.00;99.10
56542;DHT22;42438;53.174;6.730;2023-02-26T15:25:31;4.60;99.90
56542;DHT22;42438;53.174;6.730;2023-02-26T15:28:06;4.60;99.90
56542;DHT22;42438;53.174;6.730;2023-02-26T15:30:37;4.60;99.90
56542;DHT22;42438;53.174;6.730;2023-02-26T15:33:12;4.40;99.90
56542;DHT22;42438;53.174;6.730;2023-02-26T15:35:43;4.40;99.90
56542;DHT22;42438;53.174;6.730;2023-02-26T15:38:15;4.50;99.90
56542;DHT22;42438;53.174;6.730;2023-02-26T15:40:47;4.50;99.90
56542;DHT22;42438;53.174;6.730;2023-02-26T15:43:25;4.50;99.90
56542;DHT22;42438;53.174;6.730;2023-02-26T15:45:57;4.50;99.90
56542;DHT22;42438;53.174;6.730;2023-02-26T15:48:31;4.50;99.90
56542;DHT22;42438;53.174;6.730;2023-02-26T15:51:05;4.60;99.90
56542;DHT22;42438;53.174;6.730;2023-02-26T15:53:47;4.60;99.90
56542;DHT22;42438;53.174;6.730;2023-02-26T15:56:25;4.50;99.90
56542;DHT22;42438;53.174;6.730;2023-02-26T15:59:02;4.40;99.90
56542;DHT22;42438;53.174;6.730;2023-02-26T16:01:33;4.30;99.90
56542;DHT22;42438;53.174;6.730;2023-02-26T16:04:14;4.30;99.90
56542;DHT22;42438;53.174;6.730;2023-02-26T16:06:48;4.30;99.90
56542;DHT22;42438;53.174;6.730;2023-02-26T16:09:41;4.20;99.90
56542;DHT22;42438;53.174;6.730;2023-02-26T16:12:38;4.30;99.90
56542;DHT22;42438;53.174;6.730;2023-02-26T16:15:16;4.40;99.90
56542;DHT22;42438;53.174;6.730;2023-02-26T16:17:48;4.40;99.90
56542;DHT22;42438;53.174;6.730;2023-02-26T16:20:23;4.30;99.90
56542;DHT22;42438;53.174;6.730;2023-02-26T16:22:58;4.40;99.90
56542;DHT22;42438;53.174;6.730;2023-02-26T16:25:37;4.30;99.90
56542;DHT22;42438;53.174;6.730;2023-02-26T16:28:18;4.30;99.90
56542;DHT22;42438;53.174;6.730;2023-02-26T16:30:52;4.30;99.90
56542;DHT22;42438;53.174;6.730;2023-02-26T16:33:24;4.30;99.90
56542;DHT22;42438;53.174;6.730;2023-02-26T16:36:12;4.30;99.90
56542;DHT22;42438;53.174;6.730;2023-02-26T16:41:36;4.20;99.90
56542;DHT22;42438;53.174;6.730;2023-02-26T16:47:08;4.10;99.90
56542;DHT22;42438;53.174;6.730;2023-02-26T16:49:40;4.00;99.90
56542;DHT22;42438;53.174;6.730;2023-02-26T16:52:18;4.00;99.90
56542;DHT22;42438;53.174;6.730;2023-02-26T16:54:57;3.90;99.90
56542;DHT22;42438;53.174;6.730;2023-02-26T16:57:38;3.90;99.90
56542;DHT22;42438;53.174;6.730;2023-02-26T17:00:20;3.70;99.90
56542;DHT22;42438;53.174;6.730;2023-02-26T17:03:19;3.70;99.90
56542;DHT22;42438;53.174;6.730;2023-02-26T17:06:01;3.60;99.90
56542;DHT22;42438;53.174;6.730;2023-02-26T17:08:35;3.50;99.90
56542;DHT22;42438;53.174;6.730;2023-02-26T17:11:38;3.50;99.90
56542;DHT22;42438;53.174;6.730;2023-02-26T17:14:20;3.50;99.90
56542;DHT22;42438;53.174;6.730;2023-02-26T17:16:52;3.50;99.90
56542;DHT22;42438;53.174;6.730;2023-02-26T17:19:22;3.50;99.90
56542;DHT22;42438;53.174;6.730;2023-02-26T17:21:54;3.40;99.90
56542;DHT22;42438;53.174;6.730;2023-02-26T17:24:35;3.50;99.90
56542;DHT22;42438;53.174;6.730;2023-02-26T17:27:09;3.40;99.90
56542;DHT22;42438;53.174;6.730;2023-02-26T17:29:44;3.40;99.90
56542;DHT22;42438;53.174;6.730;2023-02-26T17:32:21;3.40;99.90
56542;DHT22;42438;53.174;6.730;2023-02-26T17:34:53;3.40;99.90
56542;DHT22;42438;53.174;6.730;2023-02-26T17:37:30;3.40;99.90
56542;DHT22;42438;53.174;6.730;2023-02-26T17:40:04;3.30;99.90
56542;DHT22;42438;53.174;6.730;2023-02-26T17:42:40;3.30;99.90
56542;DHT22;42438;53.174;6.730;2023-02-26T17:45:11;3.30;99.90
56542;DHT22;42438;53.174;6.730;2023-02-26T17:47:42;3.20;99.90
56542;DHT22;42438;53.174;6.730;2023-02-26T17:52:53;3.20;99.90
56542;DHT22;42438;53.174;6.730;2023-02-26T17:55:24;3.20;99.90
56542;DHT22;42438;53.174;6.730;2023-02-26T17:57:56;3.10;99.90
56542;DHT22;42438;53.174;6.730;2023-02-26T18:00:27;3.10;99.90
56542;DHT22;42438;53.174;6.730;2023-02-26T18:02:58;3.80;99.90
56542;DHT22;42438;53.174;6.730;2023-02-26T18:05:28;3.10;99.90
56542;DHT22;42438;53.174;6.730;2023-02-26T18:08:02;3.10;99.90
56542;DHT22;42438;53.174;6.730;2023-02-26T18:10:32;3.00;99.90
56542;DHT22;42438;53.174;6.730;2023-02-26T18:13:03;2.90;99.90
56542;DHT22;42438;53.174;6.730;2023-02-26T18:15:34;2.90;99.90
56542;DHT22;42438;53.174;6.730;2023-02-26T18:18:05;3.10;99.90
56542;DHT22;42438;53.174;6.730;2023-02-26T18:20:35;2.80;99.90
56542;DHT22;42438;53.174;6.730;2023-02-26T18:23:06;2.70;99.90
56542;DHT22;42438;53.174;6.730;2023-02-26T18:25:38;2.70;99.90
56542;DHT22;42438;53.174;6.730;2023-02-26T18:28:15;2.80;99.90
56542;DHT22;42438;53.174;6.730;2023-02-26T18:30:45;2.80;99.90
56542;DHT22;42438;53.174;6.730;2023-02-26T18:33:17;2.90;99.90
56542;DHT22;42438;53.174;6.730;2023-02-26T18:35:51;2.90;99.90
56542;DHT22;42438;53.174;6.730;2023-02-26T18:38:26;2.80;99.90
56542;DHT22;42438;53.174;6.730;2023-02-26T18:40:57;2.80;99.90
56542;DHT22;42438;53.174;6.730;2023-02-26T18:43:28;2.70;99.90
56542;DHT22;42438;53.174;6.730;2023-02-26T18:45:59;3.30;99.90
56542;DHT22;42438;53.174;6.730;2023-02-26T18:48:31;2.70;99.90
56542;DHT22;42438;53.174;6.730;2023-02-26T18:51:02;2.60;99.90
56542;DHT22;42438;53.174;6.730;2023-02-26T18:53:33;2.60;99.90
56542;DHT22;42438;53.174;6.730;2023-02-26T18:56:05;2.50;99.90
56542;DHT22;42438;53.174;6.730;2023-02-26T18:58:35;2.50;99.90
56542;DHT22;42438;53.174;6.730;2023-02-26T19:01:06;2.40;99.90
56542;DHT22;42438;53.174;6.730;2023-02-26T19:03:37;2.30;99.90
56542;DHT22;42438;53.174;6.730;2023-02-26T19:06:08;2.10;99.90
56542;DHT22;42438;53.174;6.730;2023-02-26T19:08:38;2.10;99.90
56542;DHT22;42438;53.174;6.730;2023-02-26T19:11:10;2.10;99.90
56542;DHT22;42438;53.174;6.730;2023-02-26T19:13:41;2.00;99.90
56542;DHT22;42438;53.174;6.730;2023-02-26T19:16:12;2.00;99.90
56542;DHT22;42438;53.174;6.730;2023-02-26T19:18:42;2.00;99.90
56542;DHT22;42438;53.174;6.730;2023-02-26T19:21:13;1.90;99.90
56542;DHT22;42438;53.174;6.730;2023-02-26T19:23:44;1.80;99.90
56542;DHT22;42438;53.174;6.730;2023-02-26T19:26:14;1.70;99.90
56542;DHT22;42438;53.174;6.730;2023-02-26T19:28:45;2.10;99.90
56542;DHT22;42438;53.174;6.730;2023-02-26T19:31:16;2.50;99.90
56542;DHT22;42438;53.174;6.730;2023-02-26T19:33:46;1.60;99.90
56542;DHT22;42438;53.174;6.730;2023-02-26T19:36:17;1.40;99.90
56542;DHT22;42438;53.174;6.730;2023-02-26T19:38:51;1.40;99.90
56542;DHT22;42438;53.174;6.730;2023-02-26T19:41:22;1.40;99.90
56542;DHT22;42438;53.174;6.730;2023-02-26T19:43:52;1.60;99.90
56542;DHT22;42438;53.174;6.730;2023-02-26T19:46:23;1.30;99.90
56542;DHT22;42438;53.174;6.730;2023-02-26T19:48:54;1.20;99.90
56542;DHT22;42438;53.174;6.730;2023-02-26T19:51:25;1.20;99.90
56542;DHT22;42438;53.174;6.730;2023-02-26T19:53:55;1.50;99.90
56542;DHT22;42438;53.174;6.730;2023-02-26T19:56:26;1.50;99.90
56542;DHT22;42438;53.174;6.730;2023-02-26T19:58:57;1.20;99.90
56542;DHT22;42438;53.174;6.730;2023-02-26T20:01:27;1.10;99.90
56542;DHT22;42438;53.174;6.730;2023-02-26T20:03:58;1.00;99.90
56542;DHT22;42438;53.174;6.730;2023-02-26T20:06:30;0.80;99.90
56542;DHT22;42438;53.174;6.730;2023-02-26T20:09:02;0.80;99.90
56542;DHT22;42438;53.174;6.730;2023-02-26T20:11:33;0.70;99.90
56542;DHT22;42438;53.174;6.730;2023-02-26T20:14:04;0.70;99.90
56542;DHT22;42438;53.174;6.730;2023-02-26T20:16:35;0.80;99.90
56542;DHT22;42438;53.174;6.730;2023-02-26T20:19:06;0.60;99.90
56542;DHT22;42438;53.174;6.730;2023-02-26T20:21:36;0.50;99.90
56542;DHT22;42438;53.174;6.730;2023-02-26T20:24:08;1.30;99.90
56542;DHT22;42438;53.174;6.730;2023-02-26T20:29:09;0.40;99.90
56542;DHT22;42438;53.174;6.730;2023-02-26T20:31:40;0.00;99.90
56542;DHT22;42438;53.174;6.730;2023-02-26T20:34:11;0.20;99.90
56542;DHT22;42438;53.174;6.730;2023-02-26T21:19:56;-0.30;99.90
56542;DHT22;42438;53.174;6.730;2023-02-26T21:22:27;-0.30;99.90
56542;DHT22;42438;53.174;6.730;2023-02-26T21:24:58;-0.50;99.90